Weather at Tarsan Lane Microlights

Public forecast

Using degrees Celsius for public forecast. Weather courtesy of forecast.io.

Closest aviation weather report (METAR) to Tarsan Lane Microlights

Closest report is Belfast International Airport, 14.3 nm (26.4 km) NNE. Retrieved 2022/06/29 00:20 UTC (8 minutes ago):

EGAA 290020Z AUTO 18006KT 9999 NCD 12/12 Q1005

Closest aviation forecast (TAF) to Tarsan Lane Microlights

Closest forecast is Belfast International Airport, 14.3 nm (26.4 km) NNE. Retrieved 2022-06-29 00:00 UTC (28 minutes ago):

TAF EGAA 282253Z 2900/2924 17009KT 9999 FEW015 SCT030 PROB30 TEMPO 2900/2911 6000 RA TEMPO 2906/2911 BKN014 TEMPO 2911/2919 7000 SHRA